createdAt,value
2023-04-09T00:00:05.648Z,35.28
2023-04-09T00:02:34.172Z,36.25
2023-04-09T00:05:03.382Z,35.35
2023-04-09T00:07:32.143Z,34.63
2023-04-09T00:10:00.562Z,33.45
2023-04-09T00:12:30.312Z,35.92
2023-04-09T00:14:58.772Z,36.30
2023-04-09T00:17:28.605Z,33.03
2023-04-09T00:19:57.065Z,33.17
2023-04-09T00:22:25.520Z,37.83
2023-04-09T00:24:54.008Z,34.90
2023-04-09T00:27:22.454Z,32.15
2023-04-09T00:29:50.877Z,33.28
2023-04-09T00:32:19.324Z,34.22
2023-04-09T00:34:49.144Z,38.20
2023-04-09T00:37:17.575Z,32.55
2023-04-09T00:39:46.932Z,32.25
2023-04-09T00:42:16.546Z,32.83
2023-04-09T00:44:44.984Z,34.00
2023-04-09T00:47:13.462Z,32.92
2023-04-09T00:49:41.909Z,33.15
2023-04-09T00:52:11.798Z,34.22
2023-04-09T00:54:40.241Z,33.40
2023-04-09T00:57:08.689Z,29.70
2023-04-09T00:59:37.123Z,32.63
2023-04-09T01:02:05.677Z,34.38
2023-04-09T01:04:34.164Z,34.25
2023-04-09T01:07:07.130Z,35.85
2023-04-09T01:09:38.926Z,31.85
2023-04-09T01:12:11.650Z,33.05
2023-04-09T01:14:41.403Z,34.42
2023-04-09T01:17:16.349Z,37.53
2023-04-09T01:19:47.975Z,36.38
2023-04-09T01:22:40.904Z,33.28
2023-04-09T01:25:13.651Z,37.53
2023-04-09T01:27:47.351Z,34.67
2023-04-09T01:30:17.971Z,33.60
2023-04-09T01:32:46.831Z,31.85
2023-04-09T01:35:15.747Z,33.88
2023-04-09T01:37:44.530Z,29.60
2023-04-09T01:40:13.287Z,37.30
2023-04-09T01:42:42.695Z,34.80
2023-04-09T01:45:13.343Z,38.92
2023-04-09T01:47:43.389Z,35.88
2023-04-09T01:50:12.266Z,33.30
2023-04-09T01:52:40.779Z,36.30
2023-04-09T01:55:09.804Z,36.28
2023-04-09T01:57:38.534Z,38.20
2023-04-09T02:00:07.850Z,37.17
2023-04-09T02:02:38.567Z,37.00
2023-04-09T02:05:10.868Z,36.92
2023-04-09T02:07:40.612Z,38.95
2023-04-09T02:10:11.969Z,38.45
2023-04-09T02:12:40.885Z,41.20
2023-04-09T02:15:09.889Z,38.95
2023-04-09T02:17:38.565Z,41.08
2023-04-09T02:20:09.429Z,39.95
2023-04-09T02:22:37.908Z,41.35
2023-04-09T02:25:06.965Z,39.83
2023-04-09T02:27:35.827Z,37.83
2023-04-09T02:30:04.304Z,40.45
2023-04-09T02:32:32.793Z,39.60
2023-04-09T02:35:01.233Z,40.10
2023-04-09T02:37:31.268Z,43.60
2023-04-09T02:39:59.727Z,41.20
2023-04-09T02:42:28.218Z,44.10
2023-04-09T02:44:56.681Z,38.80
2023-04-09T02:47:27.207Z,41.05
2023-04-09T02:49:55.706Z,36.95
2023-04-09T02:52:25.033Z,40.67
2023-04-09T02:54:55.113Z,40.75
2023-04-09T02:57:23.544Z,38.55
2023-04-09T02:59:51.949Z,42.65
2023-04-09T03:02:20.496Z,37.42
2023-04-09T03:04:49.047Z,39.38
2023-04-09T03:07:17.492Z,42.13
2023-04-09T03:09:45.897Z,39.22
2023-04-09T03:12:15.812Z,40.58
2023-04-09T03:14:44.204Z,39.50
2023-04-09T03:17:12.660Z,37.13
2023-04-09T03:19:41.085Z,43.40
2023-04-09T03:22:09.531Z,37.10
2023-04-09T03:24:38.086Z,36.75
2023-04-09T03:27:06.550Z,39.80
2023-04-09T03:29:36.401Z,39.75
2023-04-09T03:32:04.851Z,39.80
2023-04-09T03:34:33.282Z,39.22
2023-04-09T03:37:01.742Z,34.22
2023-04-09T03:39:30.847Z,36.90
2023-04-09T03:41:59.680Z,41.30
2023-04-09T03:44:28.141Z,37.75
2023-04-09T03:46:58.026Z,39.03
2023-04-09T03:49:26.450Z,42.25
2023-04-09T03:51:54.881Z,39.30
2023-04-09T03:54:23.277Z,39.95
2023-04-09T03:56:51.738Z,37.65
2023-04-09T03:59:20.234Z,38.72
2023-04-09T04:01:48.958Z,42.67
2023-04-09T04:04:20.579Z,39.83
2023-04-09T04:06:51.563Z,46.08
2023-04-09T04:09:20.043Z,36.92
2023-04-09T04:11:48.543Z,39.80
2023-04-09T04:14:17.128Z,46.80
2023-04-09T04:16:45.628Z,38.13
2023-04-09T04:19:14.121Z,40.03
2023-04-09T04:21:43.984Z,42.53
2023-04-09T04:24:12.408Z,45.08
2023-04-09T04:26:41.669Z,48.22
2023-04-09T04:29:10.091Z,49.75
2023-04-09T04:31:38.607Z,42.13
2023-04-09T04:34:07.132Z,48.47
2023-04-09T04:36:35.573Z,49.03
2023-04-09T04:39:05.375Z,44.10
2023-04-09T04:41:33.865Z,46.00
2023-04-09T04:44:02.309Z,43.72
2023-04-09T04:46:30.914Z,51.30
2023-04-09T04:48:59.343Z,46.55
2023-04-09T04:51:28.139Z,47.42
2023-04-09T04:53:56.550Z,48.05
2023-04-09T04:56:26.367Z,50.10
2023-04-09T04:58:54.814Z,48.13
2023-04-09T05:01:23.307Z,49.17
2023-04-09T05:03:51.881Z,47.38
2023-04-09T05:06:20.352Z,48.72
2023-04-09T05:08:48.766Z,48.47
2023-04-09T05:11:17.246Z,45.40
2023-04-09T05:13:47.078Z,47.20
2023-04-09T05:16:18.693Z,50.65
2023-04-09T05:18:47.162Z,45.58
2023-04-09T05:21:15.615Z,48.45
2023-04-09T05:23:44.094Z,50.20
2023-04-09T05:26:12.548Z,49.42
2023-04-09T05:28:41.427Z,47.50
2023-04-09T05:31:13.365Z,47.42
2023-04-09T05:33:42.044Z,48.63
2023-04-09T05:36:10.825Z,51.58
2023-04-09T05:38:39.254Z,42.47
2023-04-09T05:41:07.697Z,45.92
2023-04-09T05:43:36.462Z,46.42
2023-04-09T05:46:05.051Z,46.55
2023-04-09T05:48:37.023Z,43.15
2023-04-09T05:51:05.665Z,48.05
2023-04-09T05:53:34.142Z,45.40
2023-04-09T05:56:02.624Z,43.40
2023-04-09T05:58:31.355Z,44.33
2023-04-09T06:00:59.818Z,44.55
2023-04-09T06:03:28.879Z,46.35
2023-04-09T06:05:58.831Z,46.72
2023-04-09T06:08:27.341Z,47.30
2023-04-09T06:10:55.938Z,47.42
2023-04-09T06:13:24.405Z,45.83
2023-04-09T06:15:52.942Z,47.05
2023-04-09T06:18:22.072Z,44.45
2023-04-09T06:20:50.512Z,46.25
2023-04-09T06:23:20.282Z,45.90
2023-04-09T06:25:48.732Z,43.60
2023-04-09T06:28:17.163Z,42.92
2023-04-09T06:30:45.668Z,44.63
2023-04-09T06:33:14.286Z,42.55
2023-04-09T06:35:43.871Z,41.22
2023-04-09T06:38:12.341Z,39.45
2023-04-09T06:40:42.189Z,39.72
2023-04-09T06:43:10.878Z,39.97
2023-04-09T06:45:41.042Z,41.60
2023-04-09T06:48:09.686Z,36.38
2023-04-09T06:50:38.151Z,38.78
2023-04-09T06:53:07.902Z,35.15
2023-04-09T06:55:36.486Z,34.17
2023-04-09T06:58:06.265Z,33.10
2023-04-09T07:00:34.736Z,30.60
2023-04-09T07:03:03.453Z,32.13
2023-04-09T07:05:32.321Z,32.20
2023-04-09T07:08:00.794Z,31.38
2023-04-09T07:10:29.260Z,38.67
2023-04-09T07:12:57.712Z,30.95
2023-04-09T07:15:27.655Z,27.58
2023-04-09T07:17:57.699Z,31.00
2023-04-09T07:20:26.428Z,29.08
2023-04-09T07:22:54.921Z,28.42
2023-04-09T07:25:23.965Z,23.33
2023-04-09T07:27:52.619Z,26.25
2023-04-09T07:30:21.077Z,24.50
2023-04-09T07:32:51.004Z,26.08
2023-04-09T07:35:19.659Z,25.42
2023-04-09T07:37:48.069Z,25.85
2023-04-09T07:40:16.574Z,20.75
2023-04-09T07:42:45.001Z,19.25
2023-04-09T07:45:13.448Z,19.65
2023-04-09T07:47:42.149Z,17.40
2023-04-09T07:50:12.592Z,16.65
2023-04-09T07:52:41.954Z,16.05
2023-04-09T07:55:10.830Z,15.02
2023-04-09T07:57:39.250Z,14.00
2023-04-09T08:00:08.436Z,14.35
2023-04-09T08:02:36.955Z,14.13
2023-04-09T08:05:05.580Z,12.65
2023-04-09T08:07:35.409Z,12.82
2023-04-09T08:10:04.005Z,13.57
2023-04-09T08:12:32.801Z,12.35
2023-04-09T08:15:03.665Z,14.23
2023-04-09T08:17:32.209Z,10.82
2023-04-09T08:20:00.667Z,10.13
2023-04-09T08:22:29.104Z,10.80
2023-04-09T08:25:00.266Z,10.60
2023-04-09T08:27:30.732Z,9.15
2023-04-09T08:29:59.183Z,9.02
2023-04-09T08:32:27.989Z,10.07
2023-04-09T08:34:56.666Z,9.82
2023-04-09T08:37:25.120Z,9.63
2023-04-09T08:39:53.671Z,11.15
2023-04-09T08:42:24.073Z,11.27
2023-04-09T08:44:52.680Z,10.02
2023-04-09T08:47:22.255Z,8.68
2023-04-09T08:49:50.741Z,10.18
2023-04-09T08:52:22.042Z,8.52
2023-04-09T08:54:52.524Z,9.25
2023-04-09T08:57:21.226Z,8.65
2023-04-09T08:59:51.049Z,8.38
2023-04-09T09:02:19.526Z,7.50
2023-04-09T09:04:48.675Z,7.78
2023-04-09T09:07:17.294Z,7.22
2023-04-09T09:09:53.289Z,8.98
2023-04-09T09:12:35.020Z,8.43
2023-04-09T09:15:05.338Z,6.80
2023-04-09T09:17:33.793Z,7.50
2023-04-09T09:20:20.842Z,6.57
2023-04-09T09:22:54.835Z,6.72
2023-04-09T09:25:25.621Z,6.88
2023-04-09T09:27:54.812Z,7.95
2023-04-09T09:30:25.746Z,7.57
2023-04-09T09:32:55.231Z,6.13
2023-04-09T09:35:23.984Z,6.38
2023-04-09T09:38:04.144Z,6.57
2023-04-09T09:40:32.765Z,6.63
2023-04-09T09:43:01.262Z,6.00
2023-04-09T09:45:31.449Z,6.70
2023-04-09T09:48:00.016Z,6.40
2023-04-09T09:50:30.698Z,6.80
2023-04-09T09:53:03.775Z,7.10
2023-04-09T09:55:33.831Z,6.07
2023-04-09T09:58:04.703Z,6.10
2023-04-09T10:00:34.913Z,7.32
2023-04-09T10:03:08.681Z,7.35
2023-04-09T10:05:39.256Z,7.57
2023-04-09T10:08:08.594Z,8.13
2023-04-09T10:10:37.874Z,7.18
2023-04-09T10:13:09.470Z,7.57
2023-04-09T10:15:39.609Z,6.68
2023-04-09T10:18:08.978Z,8.02
2023-04-09T10:20:42.300Z,6.43
2023-04-09T10:23:13.510Z,7.95
2023-04-09T10:25:43.100Z,7.68
2023-04-09T10:28:17.269Z,6.03
2023-04-09T10:30:47.479Z,7.07
2023-04-09T10:33:19.350Z,6.55
2023-04-09T10:35:49.237Z,6.50
2023-04-09T10:38:17.728Z,7.18
2023-04-09T10:40:50.938Z,7.13
2023-04-09T10:43:21.130Z,6.72
2023-04-09T10:45:53.441Z,6.82
2023-04-09T10:48:22.787Z,5.88
2023-04-09T10:50:52.865Z,7.82
2023-04-09T10:53:24.897Z,5.95
2023-04-09T10:55:54.092Z,6.70
2023-04-09T10:58:22.848Z,6.47
2023-04-09T11:00:53.412Z,6.70
2023-04-09T11:03:23.467Z,6.93
2023-04-09T11:06:01.700Z,6.47
2023-04-09T11:08:31.473Z,6.53
2023-04-09T11:11:01.383Z,7.75
2023-04-09T11:13:31.276Z,5.75
2023-04-09T11:16:03.389Z,6.95
2023-04-09T11:18:34.522Z,7.55
2023-04-09T11:21:04.374Z,6.85
2023-04-09T11:23:33.350Z,6.93
2023-04-09T11:26:02.836Z,6.15
2023-04-09T11:28:31.367Z,6.05
2023-04-09T11:31:01.800Z,6.65
2023-04-09T11:33:34.488Z,6.43
2023-04-09T11:36:03.139Z,6.88
2023-04-09T11:38:33.094Z,5.97
2023-04-09T11:41:01.550Z,6.47
2023-04-09T11:43:29.989Z,6.40
2023-04-09T11:45:58.498Z,6.68
2023-04-09T11:48:28.295Z,6.38
2023-04-09T11:50:56.753Z,7.13
2023-04-09T11:53:25.340Z,6.18
2023-04-09T11:55:54.902Z,6.07
2023-04-09T11:58:24.664Z,7.18
2023-04-09T12:00:55.572Z,6.75
2023-04-09T12:03:32.998Z,6.32
2023-04-09T12:06:05.073Z,6.20
2023-04-09T12:08:34.670Z,6.75
2023-04-09T12:11:10.488Z,6.78
2023-04-09T12:13:43.018Z,6.88
2023-04-09T12:16:11.815Z,7.50
2023-04-09T12:18:41.935Z,6.43
2023-04-09T12:21:10.447Z,5.82
2023-04-09T12:23:38.933Z,6.32
2023-04-09T12:26:07.518Z,6.00
2023-04-09T12:28:35.977Z,6.57
2023-04-09T12:31:04.454Z,6.93
2023-04-09T12:33:34.055Z,7.18
2023-04-09T12:36:03.906Z,6.50
2023-04-09T12:38:32.390Z,6.65
2023-04-09T12:41:01.300Z,6.55
2023-04-09T12:43:29.908Z,6.07
2023-04-09T12:45:58.396Z,7.13
2023-04-09T12:48:26.878Z,6.95
2023-04-09T12:50:55.399Z,6.38
2023-04-09T12:53:25.408Z,7.43
2023-04-09T12:55:53.899Z,6.15
2023-04-09T12:58:22.339Z,6.53
2023-04-09T13:00:50.954Z,5.88
2023-04-09T13:03:19.716Z,6.07
2023-04-09T13:05:48.289Z,6.47
2023-04-09T13:08:17.265Z,7.22
2023-04-09T13:10:47.140Z,6.85
2023-04-09T13:13:15.651Z,7.18
2023-04-09T13:15:44.995Z,6.22
2023-04-09T13:18:13.612Z,6.05
2023-04-09T13:20:42.125Z,6.07
2023-04-09T13:23:10.603Z,6.75
2023-04-09T13:25:39.036Z,6.50
2023-04-09T13:28:08.879Z,6.53
2023-04-09T13:30:37.481Z,6.68
2023-04-09T13:33:06.040Z,6.43
2023-04-09T13:35:34.520Z,6.53
2023-04-09T13:38:03.004Z,5.90
2023-04-09T13:40:31.477Z,7.32
2023-04-09T13:42:59.946Z,6.95
2023-04-09T13:45:29.801Z,6.75
2023-04-09T13:47:58.509Z,7.88
2023-04-09T13:50:27.095Z,6.53
2023-04-09T13:52:55.723Z,7.45
2023-04-09T13:55:24.210Z,6.70
2023-04-09T13:57:52.649Z,6.07
2023-04-09T14:00:21.324Z,6.40
2023-04-09T14:02:51.240Z,6.10
2023-04-09T14:05:19.774Z,6.40
2023-04-09T14:07:48.195Z,6.85
2023-04-09T14:10:17.049Z,6.80
2023-04-09T14:12:45.461Z,6.40
2023-04-09T14:15:13.954Z,6.35
2023-04-09T14:17:42.429Z,7.10
2023-04-09T14:20:12.553Z,7.00
2023-04-09T14:22:42.977Z,6.32
2023-04-09T14:25:11.695Z,6.68
2023-04-09T14:27:40.162Z,5.85
2023-04-09T14:30:11.033Z,5.60
2023-04-09T14:32:39.477Z,6.65
2023-04-09T14:35:08.106Z,5.45
2023-04-09T14:37:40.770Z,5.97
2023-04-09T14:40:10.071Z,6.13
2023-04-09T14:42:38.493Z,6.72
2023-04-09T14:45:07.195Z,5.32
2023-04-09T14:47:35.647Z,5.47
2023-04-09T14:50:04.184Z,4.97
2023-04-09T14:52:32.694Z,5.43
2023-04-09T14:55:02.520Z,5.30
2023-04-09T14:57:31.333Z,5.40
2023-04-09T14:59:59.907Z,5.75
2023-04-09T15:02:28.739Z,4.72
2023-04-09T15:04:57.484Z,5.30
2023-04-09T15:07:26.564Z,5.75
2023-04-09T15:09:55.052Z,5.07
2023-04-09T15:12:24.835Z,4.85
2023-04-09T15:14:53.468Z,4.95
2023-04-09T15:17:21.975Z,5.03
2023-04-09T15:19:50.463Z,5.03
2023-04-09T15:22:18.888Z,5.22
2023-04-09T15:24:47.330Z,4.72
2023-04-09T15:27:16.070Z,4.57
2023-04-09T15:29:45.994Z,4.93
2023-04-09T15:32:14.531Z,5.20
2023-04-09T15:34:42.976Z,5.05
2023-04-09T15:37:11.423Z,5.60
2023-04-09T15:39:40.010Z,5.38
2023-04-09T15:42:10.268Z,6.10
2023-04-09T15:44:40.128Z,6.00
2023-04-09T15:47:10.093Z,5.55
2023-04-09T15:49:38.696Z,5.45
2023-04-09T15:52:07.156Z,4.60
2023-04-09T15:54:35.648Z,5.10
2023-04-09T15:57:04.206Z,4.97
2023-04-09T15:59:32.641Z,4.90
2023-04-09T16:02:01.186Z,6.07
2023-04-09T16:04:31.114Z,5.45
2023-04-09T16:06:59.595Z,5.30
2023-04-09T16:09:28.077Z,4.45
2023-04-09T16:11:56.619Z,4.28
2023-04-09T16:14:25.100Z,6.13
2023-04-09T16:16:53.856Z,5.32
2023-04-09T16:19:22.411Z,5.43
2023-04-09T16:21:52.424Z,5.13
2023-04-09T16:24:20.897Z,4.55
2023-04-09T16:26:49.543Z,4.97
2023-04-09T16:29:17.988Z,5.43
2023-04-09T16:31:46.805Z,5.22
2023-04-09T16:34:15.799Z,5.00
2023-04-09T16:36:44.702Z,4.70
2023-04-09T16:39:15.281Z,5.82
2023-04-09T16:41:43.745Z,4.45
2023-04-09T16:44:12.308Z,5.75
2023-04-09T16:46:40.764Z,5.03
2023-04-09T16:49:09.191Z,5.47
2023-04-09T16:51:38.095Z,5.38
2023-04-09T16:54:06.596Z,4.90
2023-04-09T16:56:36.695Z,4.78
2023-04-09T16:59:05.301Z,5.20
2023-04-09T17:01:34.924Z,5.15
2023-04-09T17:04:03.694Z,4.78
2023-04-09T17:06:32.273Z,5.57
2023-04-09T17:09:01.444Z,5.82
2023-04-09T17:11:30.083Z,5.35
2023-04-09T17:14:00.059Z,5.32
2023-04-09T17:16:28.850Z,6.53
2023-04-09T17:18:57.378Z,5.18
2023-04-09T17:21:26.514Z,5.68
2023-04-09T17:23:55.275Z,5.47
2023-04-09T17:26:24.715Z,6.05
2023-04-09T17:28:53.492Z,5.93
2023-04-09T17:31:24.488Z,6.30
2023-04-09T17:33:53.738Z,6.30
2023-04-09T17:36:22.910Z,6.60
2023-04-09T17:38:53.244Z,6.65
2023-04-09T17:41:21.768Z,6.03
2023-04-09T17:43:50.294Z,6.28
2023-04-09T17:46:18.804Z,5.88
2023-04-09T17:48:48.751Z,5.75
2023-04-09T17:51:18.513Z,5.60
2023-04-09T17:53:47.409Z,6.63
2023-04-09T17:56:18.915Z,5.82
2023-04-09T17:58:47.785Z,6.10
2023-04-09T18:01:16.431Z,4.85
2023-04-09T18:03:46.031Z,7.35
2023-04-09T18:06:17.403Z,6.35
2023-04-09T18:08:45.863Z,5.40
2023-04-09T18:11:15.553Z,6.03
2023-04-09T18:13:44.223Z,5.68
2023-04-09T18:16:13.348Z,7.18
2023-04-09T18:18:41.857Z,5.72
2023-04-09T18:21:10.572Z,6.57
2023-04-09T18:23:40.624Z,6.50
2023-04-09T18:26:09.112Z,6.47
2023-04-09T18:28:37.558Z,6.00
2023-04-09T18:31:06.177Z,5.95
2023-04-09T18:33:34.694Z,5.63
2023-04-09T18:36:03.411Z,6.32
2023-04-09T18:38:32.040Z,5.85
2023-04-09T18:41:02.331Z,5.50
2023-04-09T18:43:30.803Z,5.53
2023-04-09T18:45:59.312Z,5.97
2023-04-09T18:48:28.248Z,6.03
2023-04-09T18:50:56.721Z,5.25
2023-04-09T18:53:26.448Z,6.05
2023-04-09T18:55:55.137Z,6.20
2023-04-09T18:58:24.991Z,6.07
2023-04-09T19:00:53.525Z,5.80
2023-04-09T19:03:22.624Z,6.03
2023-04-09T19:05:51.430Z,5.40
2023-04-09T19:08:19.901Z,6.40
2023-04-09T19:10:48.591Z,7.05
2023-04-09T19:13:17.049Z,6.88
2023-04-09T19:15:46.994Z,7.40
2023-04-09T19:18:17.019Z,7.70
2023-04-09T19:20:45.476Z,7.00
2023-04-09T19:23:14.007Z,6.90
2023-04-09T19:25:42.919Z,6.20
2023-04-09T19:30:52.284Z,6.28
2023-04-09T19:33:21.594Z,7.32
2023-04-09T19:35:50.718Z,6.53
2023-04-09T19:38:19.433Z,6.22
2023-04-09T19:40:48.338Z,6.97
2023-04-09T19:43:17.010Z,6.55
2023-04-09T19:45:45.795Z,6.72
2023-04-09T19:48:15.883Z,8.48
2023-04-09T19:50:45.378Z,7.10
2023-04-09T19:53:13.848Z,6.93
2023-04-09T19:55:42.508Z,6.45
2023-04-09T19:58:10.945Z,7.35
2023-04-09T20:00:39.450Z,6.95
2023-04-09T20:03:08.214Z,6.63
2023-04-09T20:05:38.222Z,6.45
2023-04-09T20:08:11.806Z,6.32
2023-04-09T20:10:45.029Z,7.15
2023-04-09T20:13:13.497Z,7.32
2023-04-09T20:15:41.971Z,6.35
2023-04-09T20:18:10.642Z,14.00
2023-04-09T20:20:40.562Z,16.75
2023-04-09T20:23:09.147Z,11.45
2023-04-09T20:25:37.619Z,10.10
2023-04-09T20:28:06.471Z,8.10
2023-04-09T20:30:35.003Z,8.60
2023-04-09T20:33:03.504Z,7.32
2023-04-09T20:35:36.155Z,7.53
2023-04-09T20:38:06.122Z,9.18
2023-04-09T20:40:37.603Z,10.85
2023-04-09T20:43:06.444Z,9.80
2023-04-09T20:45:34.938Z,9.18
2023-04-09T20:48:03.487Z,7.90
2023-04-09T20:50:32.299Z,9.73
2023-04-09T20:53:01.172Z,8.32
2023-04-09T20:55:31.826Z,9.30
2023-04-09T20:58:00.314Z,8.27
2023-04-09T21:00:28.815Z,7.40
2023-04-09T21:02:57.524Z,7.63
2023-04-09T21:05:26.079Z,7.32
2023-04-09T21:07:54.673Z,6.85
2023-04-09T21:10:23.279Z,8.52
2023-04-09T21:12:53.224Z,6.97
2023-04-09T21:15:21.852Z,6.63
2023-04-09T21:17:50.409Z,7.40
2023-04-09T21:20:19.472Z,8.68
2023-04-09T21:22:47.879Z,6.78
2023-04-09T21:25:16.362Z,7.28
2023-04-09T21:27:44.827Z,6.88
2023-04-09T21:30:14.883Z,6.95
2023-04-09T21:32:43.377Z,7.43
2023-04-09T21:35:12.198Z,8.38
2023-04-09T21:37:40.704Z,7.00
2023-04-09T21:40:09.770Z,7.85
2023-04-09T21:42:38.249Z,7.03
2023-04-09T21:45:07.056Z,7.25
2023-04-09T21:47:36.924Z,6.70
2023-04-09T21:50:05.647Z,7.47
2023-04-09T21:52:34.407Z,7.78
2023-04-09T21:55:03.358Z,8.10
2023-04-09T21:57:31.837Z,8.20
2023-04-09T22:00:00.459Z,8.93
2023-04-09T22:02:29.286Z,7.75
2023-04-09T22:05:00.290Z,8.82
2023-04-09T22:07:28.966Z,9.55
2023-04-09T22:09:59.309Z,7.85
2023-04-09T22:12:28.272Z,8.60
2023-04-09T22:14:57.079Z,9.95
2023-04-09T22:17:25.792Z,7.60
2023-04-09T22:19:54.264Z,7.40
2023-04-09T22:22:24.124Z,7.10
2023-04-09T22:24:52.634Z,7.88
2023-04-09T22:27:21.117Z,8.70
2023-04-09T22:29:49.571Z,7.68
2023-04-09T22:32:18.092Z,6.80
2023-04-09T22:34:46.589Z,7.65
2023-04-09T22:37:17.043Z,8.05
2023-04-09T22:39:46.993Z,7.78
2023-04-09T22:42:15.622Z,8.02
2023-04-09T22:44:44.647Z,8.00
2023-04-09T22:47:13.071Z,7.20
2023-04-09T22:49:41.568Z,7.22
2023-04-09T22:52:10.255Z,8.63
2023-04-09T22:54:39.031Z,7.70
2023-04-09T22:57:08.831Z,7.20
2023-04-09T22:59:39.978Z,9.50
2023-04-09T23:02:09.554Z,7.95
2023-04-09T23:04:38.210Z,8.43
2023-04-09T23:07:06.732Z,7.63
2023-04-09T23:09:35.298Z,6.95
2023-04-09T23:12:04.022Z,8.23
2023-04-09T23:14:33.852Z,9.27
2023-04-09T23:17:02.357Z,6.82
2023-04-09T23:19:30.809Z,7.53
2023-04-09T23:21:59.195Z,7.38
2023-04-09T23:24:27.697Z,8.00
2023-04-09T23:26:56.261Z,8.30
2023-04-09T23:29:24.792Z,7.68
2023-04-09T23:31:54.663Z,7.25
2023-04-09T23:34:23.205Z,8.68
2023-04-09T23:36:51.639Z,8.07
2023-04-09T23:39:20.959Z,8.90
2023-04-09T23:41:49.396Z,8.85
2023-04-09T23:44:17.846Z,7.68
2023-04-09T23:46:46.667Z,8.20
2023-04-09T23:49:16.835Z,7.35
2023-04-09T23:51:45.267Z,7.00
2023-04-09T23:54:13.877Z,7.07
2023-04-09T23:56:42.355Z,6.95
2023-04-09T23:59:10.846Z,7.63
